Time;durP1;ratioP1;P1;durP2;ratioP2;P2;SDS_P1;SDS_P2;PMS_P1;PMS_P2;Temp;Humidity;BMP_temperature;BMP_pressure;BME280_temperature;BME280_humidity;BME280_pressure;Samples;Min_cycle;Max_cycle;Signal;HPM_P1;HPM_P2
2022/09/15 00:00:44;;;;;;;2.72;1.90;;;;;;;17.84;96.00;95221.75;1723305;82;20980;-85
2022/09/15 00:03:12;;;;;;;3.15;2.10;;;;;;;17.89;95.77;95209.15;1701812;83;21000;-85
2022/09/15 00:05:37;;;;;;;3.80;2.20;;;;;;;17.90;95.87;95210.23;1723092;82;20944;-85
2022/09/15 00:08:03;;;;;;;2.42;2.22;;;;;;;17.92;95.72;95206.03;1721146;83;21037;-86
2022/09/15 00:10:29;;;;;;;2.50;2.30;;;;;;;17.96;95.54;95201.84;1722311;82;20968;-85
2022/09/15 00:12:55;;;;;;;3.52;2.50;;;;;;;17.96;95.44;95200.00;1721760;83;21339;-85
2022/09/15 00:15:21;;;;;;;4.17;2.35;;;;;;;17.98;95.56;95190.55;1715685;82;21053;-85
2022/09/15 00:17:49;;;;;;;3.60;2.75;;;;;;;18.00;95.27;95195.80;1722331;82;20919;-86
2022/09/15 00:20:19;;;;;;;2.83;2.45;;;;;;;18.01;95.11;95184.77;1702527;83;21389;-85
2022/09/15 00:22:46;;;;;;;5.80;2.92;;;;;;;18.02;94.91;95186.34;1705148;82;21406;-86
2022/09/15 00:25:12;;;;;;;2.20;2.00;;;;;;;18.04;95.01;95177.67;1721022;83;20992;-85
2022/09/15 00:27:38;;;;;;;3.10;2.22;;;;;;;18.06;94.94;95179.55;1723562;82;21399;-85
2022/09/15 00:30:05;;;;;;;3.47;2.40;;;;;;;18.09;94.74;95182.19;1693714;83;20985;-85
2022/09/15 00:32:31;;;;;;;3.35;2.15;;;;;;;18.11;94.64;95180.88;1698913;84;21284;-86
2022/09/15 00:34:57;;;;;;;3.87;2.15;;;;;;;18.10;94.72;95177.98;1724043;82;21122;-86
2022/09/15 00:37:23;;;;;;;2.50;2.17;;;;;;;18.10;94.62;95179.82;1722770;83;21392;-86
2022/09/15 00:39:48;;;;;;;2.50;2.08;;;;;;;18.13;94.76;95193.76;1718182;82;21040;-85
2022/09/15 00:42:17;;;;;;;2.50;2.30;;;;;;;18.15;94.56;95197.70;1717888;83;20926;-86
2022/09/15 00:44:59;;;;;;;4.65;2.40;;;;;;;18.16;94.88;95192.71;1717468;83;20979;-85
2022/09/15 00:47:31;;;;;;;2.83;2.20;;;;;;;18.20;94.77;95184.56;1720576;82;21987;-85
2022/09/15 00:50:02;;;;;;;3.40;2.00;;;;;;;18.23;94.48;95166.98;1714457;83;21373;-86
2022/09/15 00:52:46;;;;;;;3.22;2.17;;;;;;;18.24;94.51;95166.46;1703787;83;20986;-86
2022/09/15 00:55:20;;;;;;;2.62;1.80;;;;;;;18.24;94.56;95174.34;1703285;82;20988;-86
2022/09/15 00:58:00;;;;;;;4.03;2.05;;;;;;;18.24;94.58;95171.72;1719030;82;21484;-84
2022/09/15 01:00:27;;;;;;;3.65;2.17;;;;;;;18.25;94.64;95172.77;1714700;82;21047;-85
2022/09/15 01:02:52;;;;;;;3.33;2.30;;;;;;;18.28;94.50;95171.46;1720725;83;20952;-85
2022/09/15 01:05:22;;;;;;;2.47;2.10;;;;;;;18.27;94.53;95173.30;1697712;82;21439;-86
2022/09/15 01:08:07;;;;;;;3.83;2.33;;;;;;;18.26;94.53;95157.78;1717126;82;20950;-86
2022/09/15 01:10:36;;;;;;;2.35;2.10;;;;;;;18.24;94.22;95155.42;1723662;82;20936;-84
2022/09/15 01:13:07;;;;;;;3.75;2.00;;;;;;;18.26;94.40;95163.05;1718302;83;21119;-86
2022/09/15 01:15:47;;;;;;;2.90;1.70;;;;;;;18.27;94.25;95167.25;1714318;83;21427;-86
2022/09/15 01:18:28;;;;;;;2.05;1.85;;;;;;;18.28;94.22;95165.67;1724905;82;21043;-86
2022/09/15 01:21:17;;;;;;;3.27;1.77;;;;;;;18.29;94.10;95163.84;1720126;82;21106;-85
2022/09/15 01:24:07;;;;;;;3.60;1.95;;;;;;;18.22;94.11;95147.00;1708554;82;20964;-86
2022/09/15 01:26:55;;;;;;;3.35;1.40;;;;;;;18.30;94.20;95147.80;1721318;82;20997;-86
2022/09/15 01:29:29;;;;;;;4.50;1.75;;;;;;;18.33;94.11;95157.53;1722770;82;20996;-85
2022/09/15 01:35:16;;;;;;;2.30;1.60;;;;;;;18.33;93.64;95154.37;1712759;82;21012;-86
2022/09/15 01:37:46;;;;;;;4.92;1.82;;;;;;;18.35;93.43;95148.33;1721656;82;20952;-86
2022/09/15 01:40:12;;;;;;;3.45;1.40;;;;;;;18.37;93.09;95147.53;1722942;82;21438;-85
2022/09/15 01:42:37;;;;;;;1.98;1.52;;;;;;;18.38;93.02;95148.33;1721688;83;20985;-85
2022/09/15 01:45:11;;;;;;;5.55;2.45;;;;;;;18.35;92.70;95150.95;1716593;82;20980;-86
2022/09/15 01:47:37;;;;;;;2.77;1.57;;;;;;;18.33;92.55;95142.54;1716569;82;20944;-86
2022/09/15 01:50:11;;;;;;;2.60;1.62;;;;;;;18.32;92.58;95140.96;1718607;82;21015;-86
2022/09/15 01:52:36;;;;;;;3.50;1.85;;;;;;;18.33;92.55;95147.80;1716603;83;21376;-85
2022/09/15 01:55:06;;;;;;;2.75;1.47;;;;;;;18.33;92.29;95147.01;1729323;82;21047;-86
2022/09/15 01:57:32;;;;;;;2.10;1.30;;;;;;;18.33;92.19;95141.22;1713603;83;21042;-86
2022/09/15 01:59:58;;;;;;;2.15;1.65;;;;;;;18.33;92.06;95137.28;1731356;82;21015;-86
2022/09/15 02:02:35;;;;;;;2.77;1.60;;;;;;;18.34;92.15;95133.59;1727322;82;21026;-85
2022/09/15 02:05:20;;;;;;;2.85;1.10;;;;;;;18.34;92.10;95134.91;1731720;82;21026;-86
2022/09/15 02:07:57;;;;;;;1.65;1.30;;;;;;;18.36;91.85;95132.81;1714703;82;20985;-86
2022/09/15 02:10:46;;;;;;;1.87;1.47;;;;;;;18.35;91.70;95133.86;1725124;82;21043;-86
2022/09/15 02:13:27;;;;;;;2.40;1.30;;;;;;;18.36;91.60;95125.45;1717902;82;21030;-86
2022/09/15 02:15:56;;;;;;;4.13;1.40;;;;;;;18.35;91.37;95130.44;1729368;82;21019;-86
2022/09/15 02:18:43;;;;;;;1.72;1.17;;;;;;;18.38;91.32;95133.34;1728943;82;21178;-86
2022/09/15 02:21:17;;;;;;;1.32;1.00;;;;;;;18.40;91.13;95131.79;1733209;82;20991;-86
2022/09/15 02:23:51;;;;;;;3.50;1.20;;;;;;;18.40;90.79;95131.27;1729030;82;20983;-86
2022/09/15 02:26:21;;;;;;;2.70;1.27;;;;;;;18.39;90.68;95127.05;1726054;82;20925;-87
2022/09/15 02:28:47;;;;;;;1.35;1.07;;;;;;;18.41;90.57;95122.32;1732208;82;21019;-86
2022/09/15 02:31:14;;;;;;;1.37;1.05;;;;;;;18.41;90.40;95121.53;1715093;82;20959;-86
2022/09/15 02:33:44;;;;;;;2.85;1.30;;;;;;;18.40;90.47;95119.42;1703915;83;20961;-86
2022/09/15 02:36:12;;;;;;;3.37;1.22;;;;;;;18.45;90.38;95128.63;1719416;82;21218;-85
2022/09/15 02:38:49;;;;;;;3.80;1.60;;;;;;;18.47;90.44;95127.05;1724703;82;21052;-86
2022/09/15 02:41:14;;;;;;;2.00;1.20;;;;;;;18.50;90.43;95137.05;1721402;82;21352;-86
2022/09/15 02:43:46;;;;;;;1.75;1.30;;;;;;;18.49;90.13;95131.00;1721787;83;20982;-86
2022/09/15 02:46:13;;;;;;;2.37;1.35;;;;;;;18.48;89.93;95118.89;1720640;82;20975;-85
2022/09/15 02:48:39;;;;;;;2.37;1.50;;;;;;;18.48;90.21;95135.20;1718400;83;21009;-85
2022/09/15 02:51:05;;;;;;;2.05;1.25;;;;;;;18.48;90.22;95133.36;1718407;82;20984;-84
2022/09/15 02:53:31;;;;;;;1.87;1.40;;;;;;;18.48;90.12;95137.31;1723041;82;21371;-86
2022/09/15 02:55:56;;;;;;;1.87;1.02;;;;;;;18.47;90.13;95136.26;1724321;82;20920;-86
2022/09/15 02:58:22;;;;;;;2.42;1.47;;;;;;;18.45;90.19;95129.95;1702219;83;21107;-86
2022/09/15 03:00:49;;;;;;;2.22;1.32;;;;;;;18.45;90.16;95130.47;1719465;82;20946;-86
2022/09/15 03:03:17;;;;;;;2.22;1.07;;;;;;;18.43;89.93;95133.89;1713274;83;21033;-86
2022/09/15 03:05:43;;;;;;;4.00;1.55;;;;;;;18.40;89.73;95137.84;1722253;82;21054;-86
2022/09/15 03:08:08;;;;;;;2.20;1.57;;;;;;;18.39;89.75;95123.64;1719007;83;21046;-86
2022/09/15 03:10:34;;;;;;;2.67;1.50;;;;;;;18.38;89.88;95135.17;1718784;83;21129;-86
2022/09/15 03:13:00;;;;;;;1.50;1.20;;;;;;;18.33;89.39;95120.19;1724148;82;21379;-86
2022/09/15 03:15:25;;;;;;;2.65;1.47;;;;;;;18.33;89.68;95113.61;1721920;83;20961;-84
2022/09/15 03:17:52;;;;;;;2.83;1.40;;;;;;;18.31;89.34;95109.14;1718302;82;20935;-86
2022/09/15 03:20:22;;;;;;;2.02;1.50;;;;;;;18.27;89.16;95118.61;1709377;82;21074;-86
2022/09/15 03:22:48;;;;;;;1.62;1.45;;;;;;;18.23;88.91;95116.25;1713113;82;20996;-86
2022/09/15 03:25:15;;;;;;;3.00;1.77;;;;;;;18.23;88.82;95122.29;1715554;83;21061;-86
2022/09/15 03:27:41;;;;;;;2.75;1.40;;;;;;;18.23;88.78;95118.34;1721914;82;20950;-86
2022/09/15 03:30:08;;;;;;;1.62;1.30;;;;;;;18.24;88.65;95113.35;1719640;83;21014;-86
2022/09/15 03:32:34;;;;;;;1.70;1.22;;;;;;;18.23;88.34;95109.67;1719566;82;20984;-86
2022/09/15 03:34:59;;;;;;;1.95;1.50;;;;;;;18.20;87.90;95112.27;1716600;82;20975;-85
2022/09/15 03:37:27;;;;;;;2.77;1.30;;;;;;;18.16;87.82;95115.16;1717373;83;21033;-86
2022/09/15 03:39:53;;;;;;;2.42;1.00;;;;;;;18.16;87.48;95111.74;1720227;83;21084;-86
2022/09/15 03:42:19;;;;;;;1.47;1.05;;;;;;;18.16;87.03;95118.31;1721539;83;21047;-85
2022/09/15 03:44:45;;;;;;;1.95;1.27;;;;;;;18.16;86.92;95120.95;1717630;82;21017;-86
2022/09/15 03:47:10;;;;;;;1.40;1.10;;;;;;;18.16;86.59;95123.57;1721330;82;21295;-86
2022/09/15 03:49:37;;;;;;;2.25;1.30;;;;;;;18.16;86.66;95124.89;1705820;83;21069;-89
2022/09/15 03:52:03;;;;;;;1.35;1.10;;;;;;;18.15;86.24;95122.78;1721938;82;20991;-88
2022/09/15 03:54:28;;;;;;;2.05;1.05;;;;;;;18.12;86.38;95121.99;1721633;82;20979;-88
2022/09/15 03:56:54;;;;;;;1.57;1.10;;;;;;;18.12;86.04;95120.68;1720570;83;20925;-88
2022/09/15 03:59:21;;;;;;;2.15;1.07;;;;;;;18.14;85.78;95121.73;1717872;82;21050;-88
2022/09/15 04:01:47;;;;;;;2.58;1.05;;;;;;;18.14;86.05;95116.47;1723725;82;21428;-88
2022/09/15 04:04:13;;;;;;;2.15;1.20;;;;;;;18.14;85.78;95109.38;1696370;83;21040;-88
2022/09/15 04:06:39;;;;;;;1.75;1.10;;;;;;;18.14;85.88;95110.69;1724823;82;21056;-88
2022/09/15 04:09:05;;;;;;;1.32;1.07;;;;;;;18.14;85.79;95113.84;1701822;82;22029;-88
2022/09/15 04:11:31;;;;;;;2.37;1.20;;;;;;;18.13;85.19;95116.21;1723041;82;20909;-88
2022/09/15 04:13:56;;;;;;;1.80;1.25;;;;;;;18.13;85.45;95114.38;1702348;83;20962;-88
2022/09/15 04:16:24;;;;;;;2.87;1.30;;;;;;;18.14;85.57;95109.91;1691642;83;22889;-87
2022/09/15 04:18:51;;;;;;;1.62;1.12;;;;;;;18.14;85.36;95107.27;1722598;82;20970;-88
2022/09/15 04:21:20;;;;;;;3.02;1.70;;;;;;;18.13;85.39;95110.43;1721330;82;20995;-87
2022/09/15 04:23:46;;;;;;;3.50;2.15;;;;;;;18.11;85.37;95109.11;1724560;82;21040;-88
2022/09/15 04:26:30;;;;;;;2.25;1.75;;;;;;;18.09;85.42;95123.83;1716502;83;20981;-87
2022/09/15 04:28:56;;;;;;;3.72;1.60;;;;;;;18.07;85.61;95125.93;1719533;82;21005;-88
2022/09/15 04:31:22;;;;;;;3.33;1.65;;;;;;;18.09;85.87;95129.09;1720332;83;21408;-88
2022/09/15 04:33:53;;;;;;;2.72;1.82;;;;;;;18.11;85.83;95124.36;1724844;82;20955;-88
2022/09/15 04:36:22;;;;;;;2.50;1.50;;;;;;;18.12;86.02;95118.58;1722844;82;20961;-88
2022/09/15 04:38:49;;;;;;;2.12;1.57;;;;;;;18.11;86.24;95119.62;1721786;82;21027;-88
2022/09/15 04:41:15;;;;;;;2.87;1.37;;;;;;;18.10;86.50;95114.11;1722180;83;20997;-88
2022/09/15 04:43:42;;;;;;;2.70;1.50;;;;;;;18.08;86.47;95114.89;1718521;82;20997;-88
2022/09/15 04:46:08;;;;;;;4.05;1.90;;;;;;;18.11;86.58;95116.47;1716284;82;20944;-88
2022/09/15 04:48:34;;;;;;;2.85;1.80;;;;;;;18.13;86.80;95114.38;1720140;82;20989;-88
2022/09/15 04:51:05;;;;;;;2.10;1.52;;;;;;;18.15;86.85;95108.85;1716110;83;21045;-88
2022/09/15 04:53:31;;;;;;;3.55;2.27;;;;;;;18.08;86.84;95107.80;1721937;83;20957;-88
2022/09/15 04:56:09;;;;;;;3.15;1.72;;;;;;;18.08;86.84;95107.80;1713601;82;20974;-87
2022/09/15 04:58:41;;;;;;;3.55;1.72;;;;;;;18.14;86.54;95111.22;1716184;83;21444;-88
2022/09/15 05:01:16;;;;;;;3.80;1.50;;;;;;;18.14;86.41;95121.73;1702437;82;20987;-88
2022/09/15 05:03:43;;;;;;;3.00;1.62;;;;;;;18.14;86.21;95117.27;1721214;83;21136;-88
2022/09/15 05:06:11;;;;;;;2.70;1.67;;;;;;;18.15;86.28;95121.47;1720487;82;21072;-88
2022/09/15 05:08:37;;;;;;;2.72;1.57;;;;;;;18.16;86.38;95120.42;1724484;83;21080;-88
2022/09/15 05:11:06;;;;;;;3.60;1.60;;;;;;;18.17;86.40;95118.05;1724256;82;20998;-88
2022/09/15 05:13:33;;;;;;;4.10;1.90;;;;;;;18.15;86.58;95116.21;1713494;82;21024;-88
2022/09/15 05:16:13;;;;;;;2.20;1.70;;;;;;;18.16;86.43;95123.57;1698146;82;21092;-88
2022/09/15 05:18:41;;;;;;;3.50;2.02;;;;;;;18.17;86.58;95120.68;1725998;82;21007;-88
2022/09/15 05:21:09;;;;;;;3.98;2.25;;;;;;;18.16;86.34;95112.53;1723551;82;21036;-88
2022/09/15 05:23:35;;;;;;;2.42;1.67;;;;;;;18.15;86.68;95112.27;1719755;82;21048;-88
2022/09/15 05:26:03;;;;;;;3.50;1.80;;;;;;;18.16;86.59;95113.84;1724495;82;21016;-88
2022/09/15 05:28:32;;;;;;;3.10;1.77;;;;;;;18.17;86.91;95127.78;1723089;82;21026;-88
2022/09/15 05:30:57;;;;;;;2.87;1.77;;;;;;;18.15;86.87;95122.00;1723355;82;20948;-88
2022/09/15 05:33:23;;;;;;;3.00;2.42;;;;;;;18.14;87.04;95122.52;1719007;82;21371;-88
2022/09/15 05:35:55;;;;;;;3.02;1.52;;;;;;;18.14;86.89;95122.52;1724519;82;20976;-88
2022/09/15 05:38:21;;;;;;;2.92;2.12;;;;;;;18.14;87.03;95119.10;1724775;82;21000;-88
2022/09/15 05:40:49;;;;;;;3.25;1.72;;;;;;;18.14;87.05;95116.47;1693115;84;21079;-88
2022/09/15 05:43:15;;;;;;;3.67;1.80;;;;;;;18.15;86.95;95123.31;1691797;84;21019;-88
2022/09/15 05:45:41;;;;;;;3.33;1.75;;;;;;;18.15;87.26;95123.31;1678489;84;20972;-88
2022/09/15 05:48:10;;;;;;;3.10;1.47;;;;;;;18.16;87.28;95114.38;1686401;83;20961;-88
2022/09/15 05:50:37;;;;;;;2.60;1.55;;;;;;;18.14;87.31;95111.22;1676329;84;20948;-87
2022/09/15 05:53:06;;;;;;;2.72;1.67;;;;;;;18.13;87.17;95105.70;1688281;84;21039;-88
2022/09/15 05:55:36;;;;;;;1.40;1.17;;;;;;;18.13;86.56;95093.34;1694706;84;20972;-88
2022/09/15 05:58:02;;;;;;;1.40;1.15;;;;;;;18.16;86.13;95102.02;1686921;84;20971;-87
2022/09/15 06:00:28;;;;;;;2.35;1.25;;;;;;;18.17;85.71;95106.75;1691036;84;20952;-88
2022/09/15 06:02:54;;;;;;;1.95;1.35;;;;;;;18.17;85.82;95106.22;1678906;84;21451;-88
2022/09/15 06:05:20;;;;;;;3.52;1.50;;;;;;;18.17;85.57;95100.97;1680784;84;21066;-88
2022/09/15 06:07:45;;;;;;;1.65;1.10;;;;;;;18.21;85.23;95103.86;1675064;84;21017;-87
2022/09/15 06:10:11;;;;;;;3.65;1.30;;;;;;;18.22;85.19;95099.68;1661602;84;21006;-88
2022/09/15 06:12:39;;;;;;;1.57;1.25;;;;;;;18.28;85.25;95112.30;1674293;84;21079;-88
2022/09/15 06:15:05;;;;;;;1.82;1.32;;;;;;;18.32;85.18;95100.20;1686700;84;21026;-87
2022/09/15 06:17:32;;;;;;;1.75;1.20;;;;;;;18.32;84.78;95109.41;1674979;84;21322;-88
2022/09/15 06:20:00;;;;;;;1.75;1.30;;;;;;;18.34;84.90;95116.51;1689696;82;21097;-88
2022/09/15 06:22:27;;;;;;;1.82;1.20;;;;;;;18.35;84.58;95118.09;1720695;82;21388;-88
2022/09/15 06:24:54;;;;;;;2.33;1.10;;;;;;;18.36;84.67;95117.56;1720575;82;21349;-88
2022/09/15 06:27:20;;;;;;;1.57;1.15;;;;;;;18.40;84.68;95111.54;1716563;82;21356;-88
2022/09/15 06:29:46;;;;;;;1.45;0.90;;;;;;;18.42;84.83;95108.64;1721866;82;20981;-89
2022/09/15 06:32:12;;;;;;;1.45;1.15;;;;;;;18.48;85.18;95117.58;1716787;82;20994;-88
2022/09/15 06:34:38;;;;;;;2.45;0.93;;;;;;;18.54;84.82;95120.47;1718250;82;20979;-88
2022/09/15 06:37:04;;;;;;;1.82;1.02;;;;;;;18.58;85.62;95130.75;1719179;82;21449;-88
2022/09/15 06:39:29;;;;;;;2.45;0.93;;;;;;;18.63;85.33;95130.48;1716978;82;21059;-89
2022/09/15 06:41:55;;;;;;;1.52;0.90;;;;;;;18.64;85.74;95129.46;1719387;82;21098;-88
2022/09/15 06:44:21;;;;;;;3.52;0.82;;;;;;;18.68;85.57;95143.14;1719610;82;21319;-88
2022/09/15 06:46:47;;;;;;;2.40;0.98;;;;;;;18.71;85.67;95154.48;1723192;82;21048;-88
2022/09/15 06:49:13;;;;;;;1.27;1.00;;;;;;;18.74;85.78;95142.64;1722302;82;21001;-88
2022/09/15 06:51:39;;;;;;;1.22;0.80;;;;;;;18.75;85.07;95167.89;1722887;82;20944;-88
2022/09/15 06:54:05;;;;;;;1.15;0.90;;;;;;;18.74;84.80;95170.27;1722937;82;21392;-88
2022/09/15 06:56:31;;;;;;;1.15;1.02;;;;;;;18.71;85.37;95162.88;1720616;82;21321;-88
2022/09/15 06:58:58;;;;;;;1.42;0.93;;;;;;;18.67;85.65;95156.56;1713176;82;21043;-88
2022/09/15 07:01:30;;;;;;;2.87;0.80;;;;;;;18.76;85.59;95176.05;1721072;82;21023;-89
2022/09/15 07:03:58;;;;;;;2.95;0.98;;;;;;;18.75;85.83;95177.89;1705395;82;21064;-89
2022/09/15 07:06:29;;;;;;;0.98;0.88;;;;;;;18.75;86.71;95187.62;1726981;82;20952;-89
2022/09/15 07:08:55;;;;;;;1.00;0.88;;;;;;;18.70;86.30;95188.92;1684856;82;20940;-88
2022/09/15 07:11:21;;;;;;;1.75;0.93;;;;;;;18.63;86.35;95200.20;1735172;82;20988;-88
2022/09/15 07:13:51;;;;;;;1.62;1.10;;;;;;;18.55;86.77;95223.35;1721901;82;21044;-88
2022/09/15 07:16:17;;;;;;;2.70;1.75;;;;;;;18.46;87.37;95242.52;1693146;83;20989;-89
2022/09/15 07:18:44;;;;;;;2.98;2.02;;;;;;;18.31;87.86;95265.60;1679131;85;21434;-88
2022/09/15 07:21:14;;;;;;;2.92;2.10;;;;;;;18.10;88.37;95273.14;1678908;85;20998;-88
2022/09/15 07:23:39;;;;;;;3.33;2.52;;;;;;;17.95;88.83;95290.93;1714904;82;21406;-88
2022/09/15 07:26:08;;;;;;;4.85;2.80;;;;;;;17.82;89.45;95293.47;1723880;82;20997;-88
2022/09/15 07:28:34;;;;;;;4.20;3.15;;;;;;;17.70;90.29;95298.11;1708605;82;21384;-88
2022/09/15 07:31:00;;;;;;;5.55;3.37;;;;;;;17.56;90.21;95291.67;1714955;82;20981;-89
2022/09/15 07:33:25;;;;;;;3.85;3.47;;;;;;;17.49;90.89;95300.30;1718655;82;20976;-88
2022/09/15 07:35:51;;;;;;;3.20;2.90;;;;;;;17.38;90.95;95308.08;1715377;82;21061;-88
2022/09/15 07:38:17;;;;;;;3.98;2.90;;;;;;;17.29;91.09;95309.59;1715518;82;20947;-88
2022/09/15 07:40:44;;;;;;;3.55;2.12;;;;;;;17.27;91.88;95321.39;1722562;82;20983;-88
2022/09/15 07:43:11;;;;;;;2.20;2.00;;;;;;;17.25;92.06;95324.27;1721347;82;20938;-88
2022/09/15 07:45:37;;;;;;;1.32;1.10;;;;;;;17.24;92.17;95338.41;1720273;82;20968;-89
2022/09/15 07:48:03;;;;;;;2.10;1.60;;;;;;;17.25;92.06;95336.60;1697208;83;20944;-88
2022/09/15 07:50:28;;;;;;;1.40;1.15;;;;;;;17.22;92.11;95339.70;1721623;83;20953;-88
2022/09/15 07:52:55;;;;;;;2.05;1.35;;;;;;;17.23;92.45;95337.34;1721988;82;21096;-88
2022/09/15 07:55:22;;;;;;;1.90;1.55;;;;;;;17.18;92.45;95348.59;1722408;83;21021;-88
2022/09/15 07:57:57;;;;;;;1.30;1.20;;;;;;;17.14;92.67;95363.78;1720000;82;20975;-88
2022/09/15 08:00:23;;;;;;;1.57;1.27;;;;;;;17.07;92.61;95366.58;1723235;82;21002;-88
2022/09/15 08:02:49;;;;;;;1.65;1.12;;;;;;;17.00;93.05;95372.04;1723453;83;21404;-88
2022/09/15 08:05:15;;;;;;;1.67;1.25;;;;;;;16.98;93.17;95370.19;1722259;82;20934;-88
2022/09/15 08:07:40;;;;;;;1.10;0.90;;;;;;;16.95;93.59;95382.48;1713824;83;20977;-88
2022/09/15 08:10:08;;;;;;;1.52;0.80;;;;;;;16.89;93.61;95380.03;1714820;82;21082;-88
2022/09/15 08:12:35;;;;;;;1.52;1.07;;;;;;;16.83;93.89;95387.58;1720731;82;21004;-87
2022/09/15 08:15:01;;;;;;;1.45;1.10;;;;;;;16.83;94.25;95403.33;1722122;82;21377;-87
2022/09/15 08:17:27;;;;;;;1.10;0.90;;;;;;;16.81;94.58;95410.13;1723432;82;20955;-87
2022/09/15 08:19:53;;;;;;;1.42;1.02;;;;;;;16.80;94.80;95419.03;1721902;83;20969;-87
2022/09/15 08:22:18;;;;;;;1.57;0.85;;;;;;;16.78;94.59;95410.63;1705162;82;20980;-87
2022/09/15 08:24:44;;;;;;;1.47;1.10;;;;;;;16.79;95.04;95420.08;1721433;82;20991;-87
2022/09/15 08:27:10;;;;;;;2.15;1.05;;;;;;;16.83;95.43;95416.44;1719684;83;21320;-87
2022/09/15 08:29:36;;;;;;;2.75;1.40;;;;;;;16.87;95.27;95414.91;1720675;83;20977;-87
2022/09/15 08:32:01;;;;;;;2.85;1.40;;;;;;;16.92;95.75;95414.96;1717768;82;21017;-86
2022/09/15 08:34:29;;;;;;;2.00;1.25;;;;;;;16.94;95.39;95418.95;1709304;82;20960;-87
2022/09/15 08:36:55;;;;;;;1.75;1.22;;;;;;;16.98;95.76;95423.98;1715736;83;21021;-87
2022/09/15 08:39:21;;;;;;;4.42;1.07;;;;;;;17.02;95.93;95422.96;1720471;83;21324;-87
2022/09/15 08:41:49;;;;;;;1.40;1.05;;;;;;;17.04;95.60;95429.55;1722395;82;21010;-87
2022/09/15 08:44:44;;;;;;;2.33;1.47;;;;;;;17.05;95.75;95427.20;1722092;83;21001;-86
2022/09/15 08:47:16;;;;;;;1.80;1.20;;;;;;;17.08;95.83;95427.22;1719492;83;20946;-86
2022/09/15 08:50:20;;;;;;;2.27;1.52;;;;;;;17.09;95.57;95440.12;1721141;82;21366;-87
2022/09/15 08:52:59;;;;;;;2.35;1.35;;;;;;;17.10;95.62;95446.16;1705302;82;21475;-85
2022/09/15 08:55:45;;;;;;;1.40;1.30;;;;;;;17.08;95.75;95446.91;1714201;83;21153;-86
2022/09/15 08:58:18;;;;;;;1.47;1.17;;;;;;;17.07;95.94;95443.48;1721178;82;21375;-86
2022/09/15 09:01:07;;;;;;;1.42;1.12;;;;;;;17.11;96.01;95438.56;1724400;82;21373;-86
2022/09/15 09:03:59;;;;;;;2.02;1.37;;;;;;;17.08;96.25;95442.97;1721629;82;20934;-86
2022/09/15 09:07:05;;;;;;;2.33;1.32;;;;;;;17.16;97.15;95448.32;1720731;82;20979;-86
2022/09/15 09:09:56;;;;;;;2.08;1.35;;;;;;;17.13;96.41;95448.81;1723509;82;20966;-86
2022/09/15 09:12:56;;;;;;;1.75;1.65;;;;;;;17.10;96.16;95450.11;1716289;83;21041;-86
2022/09/15 09:15:47;;;;;;;1.60;1.15;;;;;;;17.03;96.25;95455.52;1725893;82;20994;-86
2022/09/15 09:18:22;;;;;;;1.90;1.30;;;;;;;17.04;96.59;95449.23;1721942;82;21027;-86
2022/09/15 09:21:11;;;;;;;2.42;1.50;;;;;;;17.07;97.04;95451.36;1720208;82;21016;-86
2022/09/15 09:24:00;;;;;;;2.58;1.40;;;;;;;17.09;96.66;95447.20;1714157;83;20982;-86
2022/09/15 09:26:26;;;;;;;2.25;1.40;;;;;;;17.08;96.95;95447.73;1688849;83;21014;-87
2022/09/15 09:28:58;;;;;;;1.22;1.12;;;;;;;17.18;97.71;95447.55;1702509;83;21374;-85
2022/09/15 09:31:24;;;;;;;3.65;1.52;;;;;;;17.32;98.11;95444.83;1701755;82;21032;-86
2022/09/15 09:34:21;;;;;;;1.82;1.50;;;;;;;17.55;97.80;95439.80;1721698;82;20953;-84
2022/09/15 09:36:54;;;;;;;1.45;1.20;;;;;;;17.55;97.80;95439.80;1722717;82;20970;-86
2022/09/15 09:39:20;;;;;;;1.55;0.98;;;;;;;17.62;96.94;95440.41;1689672;83;20958;-86
2022/09/15 09:41:46;;;;;;;1.10;0.90;;;;;;;17.67;97.06;95444.39;1720261;82;21435;-86
2022/09/15 09:44:13;;;;;;;1.62;1.00;;;;;;;17.77;96.97;95433.22;1723469;83;20997;-86
2022/09/15 09:46:39;;;;;;;1.10;1.00;;;;;;;17.93;97.78;95430.99;1722949;82;21022;-86
2022/09/15 09:49:24;;;;;;;1.55;1.02;;;;;;;18.05;97.50;95425.55;1716210;82;21028;-86
2022/09/15 09:52:02;;;;;;;1.42;1.00;;;;;;;18.06;96.52;95431.89;1713903;82;20982;-86
2022/09/15 09:54:30;;;;;;;0.78;0.65;;;;;;;18.05;96.28;95431.59;1707208;82;21320;-86
2022/09/15 09:57:15;;;;;;;1.12;0.72;;;;;;;18.07;95.24;95428.73;1702109;82;21408;-87
2022/09/15 09:59:49;;;;;;;1.50;1.00;;;;;;;18.08;95.34;95425.06;1717807;82;21005;-86
2022/09/15 10:02:23;;;;;;;1.22;1.10;;;;;;;18.12;95.67;95422.98;1714576;82;20997;-86
2022/09/15 10:05:17;;;;;;;1.85;0.82;;;;;;;18.16;95.33;95425.90;1684260;84;21358;-87
2022/09/15 10:07:43;;;;;;;1.00;0.88;;;;;;;18.12;94.78;95422.98;1715476;82;21385;-87
2022/09/15 10:10:22;;;;;;;1.40;0.90;;;;;;;18.09;94.75;95424.02;1718708;82;20954;-86
2022/09/15 10:12:47;;;;;;;1.70;1.30;;;;;;;18.07;94.37;95422.17;1720869;82;21024;-87
2022/09/15 10:15:23;;;;;;;1.45;1.27;;;;;;;18.06;95.33;95416.61;1717618;82;21408;-87
2022/09/15 10:17:49;;;;;;;2.00;1.12;;;;;;;17.99;94.10;95422.89;1722547;82;20982;-86
2022/09/15 10:20:46;;;;;;;1.40;1.20;;;;;;;17.96;95.03;95414.20;1720409;82;21038;-86
2022/09/15 10:23:25;;;;;;;2.00;1.62;;;;;;;17.98;95.46;95418.67;1721642;82;21009;-86
2022/09/15 10:25:55;;;;;;;1.32;1.07;;;;;;;18.03;95.65;95418.44;1688676;83;21072;-86
2022/09/15 10:28:24;;;;;;;1.75;1.65;;;;;;;17.99;94.62;95414.21;1686840;84;20967;-86
2022/09/15 10:31:14;;;;;;;2.00;1.90;;;;;;;17.98;95.11;95418.67;1665912;86;21523;-87
2022/09/15 10:33:44;;;;;;;2.40;2.20;;;;;;;17.98;94.85;95419.20;1673423;84;21004;-87
2022/09/15 10:36:29;;;;;;;2.15;2.00;;;;;;;17.97;95.21;95416.30;1683972;84;21022;-86
2022/09/15 10:39:33;;;;;;;2.45;2.25;;;;;;;17.96;95.23;95407.63;1692833;83;20988;-87
2022/09/15 10:42:08;;;;;;;4.20;3.77;;;;;;;18.00;95.22;95409.22;1644279;84;21001;-86
2022/09/15 10:45:01;;;;;;;4.87;4.47;;;;;;;18.05;95.19;95409.77;1682215;84;21481;-86
2022/09/15 10:48:05;;;;;;;3.60;3.30;;;;;;;18.06;94.71;95404.78;1658427;85;21015;-87
2022/09/15 10:50:49;;;;;;;3.05;2.70;;;;;;;18.05;93.79;95403.99;1680534;84;20991;-86
2022/09/15 10:53:36;;;;;;;6.90;6.30;;;;;;;17.96;93.60;95397.63;1647725;85;21020;-86
2022/09/15 10:56:25;;;;;;;5.25;4.83;;;;;;;17.92;94.31;95399.19;1707873;83;21014;-86
2022/09/15 10:59:05;;;;;;;4.30;3.90;;;;;;;17.91;94.35;95391.03;1716531;83;21020;-86
2022/09/15 11:01:51;;;;;;;2.85;2.65;;;;;;;17.89;94.37;95386.52;1720876;82;21007;-86
2022/09/15 11:04:43;;;;;;;2.65;2.45;;;;;;;17.99;95.14;95386.61;1717298;82;20952;-86
2022/09/15 11:07:17;;;;;;;3.77;3.47;;;;;;;18.04;94.82;95389.27;1729515;82;20947;-86
2022/09/15 11:09:55;;;;;;;4.47;4.08;;;;;;;18.10;95.11;95384.86;1711595;83;21006;-86
2022/09/15 11:12:49;;;;;;;4.20;3.80;;;;;;;18.13;95.34;95375.14;1696474;83;21035;-87
2022/09/15 11:16:03;;;;;;;3.90;3.60;;;;;;;18.17;94.93;95368.33;1719304;82;20964;-86
2022/09/15 11:18:55;;;;;;;3.62;3.33;;;;;;;18.24;95.45;95365.77;1694450;83;21294;-86
2022/09/15 11:21:34;;;;;;;3.08;2.87;;;;;;;18.25;94.42;95362.08;1726352;82;21008;-86
2022/09/15 11:24:22;;;;;;;3.87;3.58;;;;;;;18.27;94.26;95361.83;1711252;84;20994;-86
2022/09/15 11:26:57;;;;;;;3.75;3.35;;;;;;;18.34;94.30;95365.02;1685573;84;20979;-87
2022/09/15 11:29:53;;;;;;;3.70;3.40;;;;;;;18.38;94.71;95365.28;1639571;85;20962;-86
2022/09/15 11:32:25;;;;;;;2.67;2.47;;;;;;;18.37;94.04;95361.08;1678143;84;21339;-86
2022/09/15 11:34:57;;;;;;;2.40;2.20;;;;;;;18.34;92.48;95362.91;1685899;84;20947;-87
2022/09/15 11:37:37;;;;;;;2.50;2.30;;;;;;;18.35;92.69;95359.23;1707432;82;20992;-85
2022/09/15 11:40:27;;;;;;;3.52;2.62;;;;;;;18.39;92.39;95353.75;1709266;83;21360;-86
2022/09/15 11:43:16;;;;;;;4.03;2.90;;;;;;;18.35;92.56;95350.02;1732749;82;21486;-86
2022/09/15 11:45:47;;;;;;;3.42;3.10;;;;;;;18.31;92.10;95352.37;1733368;82;20983;-86
2022/09/15 11:48:28;;;;;;;3.65;2.80;;;;;;;18.34;91.69;95349.75;1730477;81;21068;-86
2022/09/15 11:50:55;;;;;;;3.25;3.00;;;;;;;18.33;92.35;95354.22;1694123;83;20960;-87
2022/09/15 11:53:39;;;;;;;3.20;2.90;;;;;;;18.37;92.60;95347.41;1666974;84;21391;-87
2022/09/15 11:56:42;;;;;;;4.00;3.12;;;;;;;18.44;93.05;95347.19;1664721;85;21101;-85
2022/09/15 11:59:26;;;;;;;3.42;3.12;;;;;;;18.49;93.45;95347.99;1677793;84;21049;-87